メインページ
METAR-TAF:

METAR-TAF

空港 :

サンディエゴ国際空港

サンディエゴ, カリフォルニア州, アメリカ合衆国

緯度: 32-44-01N, 経度: 117-10-59W, 海抜: 4m

現時点の気象観測

当レポートは31分前の07:51(UTC)に作成
無風
気温 14°C
湿度 82%
気圧 1018 hPa
視程: 14.5km
高度1000ftの雲はほとんどない
高度25000ftの千切れ雲あり

METAR: KSAN 260751Z 00000KT 9SM FEW010 BKN250 14/11 A3007 RMK AO2 SLP183 T01440111 402060117

時間: 01:22 (08:22 UTC)

予報

当レポートは3時間2分前の05:20(UTC)に作成
予報は26日の 06時(UTC)から 27日の 12時(UTC)まで有効
北/北西の風 5kt
視程: 10km
高度1200ftの雲はほとんどない
高度25000ftの雲は散在している
26日の 13時(UTC)から 26日の 16時(UTC)まで一時的に
高度1200ftの千切れ雲あり
26日の 1600時(UTC)から
変向風 4kt
視程: 10km
高度1000ftの雲は散在している
高度25000ftの雲は散在している
26日の 2000時(UTC)から
北西の風 11kt
視程: 10km
高度25000ftの雲は散在している
27日の 0200時(UTC)から
北西の風 4kt
視程: 10km
高度1500ftの雲は散在している
高度25000ftの雲は散在している
27日の 0500時(UTC)から
西/北西の風 4kt
視程: 10km
高度1500ftの千切れ雲あり

TAF: KSAN 260520Z 2606/2712 33005KT P6SM FEW012 SCT250 TEMPO 2613/2616 BKN012 FM261600 VRB04KT P6SM SCT010 SCT250 FM262000 31011KT P6SM SCT250 FM270200 31004KT P6SM SCT015 SCT250 FM270500 30004KT P6SM BKN015

4,000以上の空港の気象観測と天気予報(METAR報とTAF報)

利用可能な観測所は地図上に黄色い丸と赤い丸で示す。

丸の上にカーソルを重ねると観測所名を参照できる。

次にクリックすると気象観測と天気予報を参照できる。

マップの切り替え:黒色「×」印の緑ボタンをクリックして拡大、「-」印の緑ボタンをクリックして縮小、緑色の三角印をクリックして隣りの地図に切り替え


METAR-TAF: